El Ejido, Spain
Current Conditions -  °F | °C
As of 10:30 AM on Saturday 29 Nov 2014 (Local Time) from LEAM Reporting Station
Scattered Clouds Scattered Clouds  
Wind Chill: 61°   Ceiling: Unl
Heat Index: 61°   Visibility: 6mi
Dew Point: 54°   Wind: 5mph
Humidity: 77%   Direction: 310°NW
Pressure: 29.29"   Gusts: NA
Location:  36.78°N, 2.81°W
Report Text: LEAM 290930Z 31004KT 9999 FEW015 SCT070 16/12 Q0992
Loading
Personal Weather Stations






























Interactive Weather Map New forecast layout! Learn more

10-Day Weather Forecast

Advertisements
Track Severe Weather on mobile